Hummelstown, Pennsylvania
Current Conditions -  °F | °C
As of 9:56 PM on Sunday 23 Nov 2014 (Local Time) from KMDT Reporting Station
Overcast Overcast  
Wind Chill: 43°   Ceiling: 4600
Heat Index: 47°   Visibility: 10mi
Dew Point: 35°   Wind: 8mph
Humidity: 63%   Direction: 130°SE
Pressure: 29.93"   Gusts: NA
Location:  40.27°N, 76.71°W
Report Text: KMDT 240256Z 13007KT 10SM SCT040 BKN046 OVC055 08/02 A2993 RMK AO2 SLP137 T00830017 58034
Loading
Personal Weather Stations






























Interactive Weather Map New forecast layout! Learn more

10-Day Weather Forecast

Advertisements
Track Severe Weather on mobile